Time;durP1;ratioP1;P1;durP2;ratioP2;P2;SDS_P1;SDS_P2;PMS_P1;PMS_P2;Temp;Humidity;BMP_temperature;BMP_pressure;BME280_temperature;BME280_humidity;BME280_pressure;Samples;Min_cycle;Max_cycle;Signal;HPM_P1;HPM_P2
2021/06/26 00:00:50;;;;;;;3.10;1.60;;;;;;;22.71;68.64;93120.72;5074062;28;20480;-88
2021/06/26 00:03:19;;;;;;;4.95;1.65;;;;;;;22.88;69.25;93153.44;5074232;28;20048;-89
2021/06/26 00:05:46;;;;;;;5.78;2.05;;;;;;;22.88;68.97;93156.06;5074015;28;20408;-89
2021/06/26 00:08:13;;;;;;;6.70;2.33;;;;;;;22.85;68.88;93160.03;5074077;28;20480;-88
2021/06/26 00:10:40;;;;;;;6.57;2.10;;;;;;;22.82;69.03;93158.00;5073927;28;20488;-88
2021/06/26 00:13:07;;;;;;;4.97;1.42;;;;;;;22.84;69.74;93155.88;5073980;28;20044;-88
2021/06/26 00:15:34;;;;;;;3.60;1.25;;;;;;;22.83;68.97;93154.31;5074024;28;20074;-88
2021/06/26 00:18:01;;;;;;;4.45;1.50;;;;;;;22.84;68.85;93142.78;5073754;28;20051;-88
2021/06/26 00:20:29;;;;;;;4.50;1.20;;;;;;;22.81;69.29;93151.19;5073684;28;20052;-88
2021/06/26 00:22:57;;;;;;;3.42;1.23;;;;;;;22.83;69.45;93151.69;5074059;28;20052;-87
2021/06/26 00:25:24;;;;;;;3.50;1.02;;;;;;;22.79;70.06;93159.34;5073529;28;20492;-88
2021/06/26 00:27:52;;;;;;;6.07;1.38;;;;;;;22.75;69.66;93163.59;5073784;28;20048;-88
2021/06/26 00:30:20;;;;;;;9.52;2.08;;;;;;;22.73;70.58;93159.72;5073878;28;20056;-87
2021/06/26 00:32:47;;;;;;;7.13;2.05;;;;;;;22.52;70.90;93154.78;5073521;28;20507;-88
2021/06/26 00:35:14;;;;;;;5.75;2.28;;;;;;;22.65;70.89;93167.19;5073379;28;20047;-87
2021/06/26 00:37:44;;;;;;;7.47;2.30;;;;;;;22.55;70.17;93149.78;5073643;28;20107;-87
2021/06/26 00:40:12;;;;;;;5.00;1.63;;;;;;;22.60;70.86;93154.16;5073425;28;20052;-87
2021/06/26 00:42:41;;;;;;;7.55;2.40;;;;;;;22.59;71.87;93160.44;5073400;28;20389;-88
2021/06/26 00:45:11;;;;;;;7.70;2.63;;;;;;;22.49;73.00;93160.59;5072978;28;20056;-87
2021/06/26 00:47:38;;;;;;;5.97;1.58;;;;;;;22.48;71.96;93159.81;5073221;28;20049;-88
2021/06/26 00:50:06;;;;;;;10.32;2.22;;;;;;;22.44;72.51;93161.44;5073273;28;20059;-88
2021/06/26 00:52:33;;;;;;;6.20;2.05;;;;;;;22.42;72.69;93163.56;5073161;28;20450;-88
2021/06/26 00:55:01;;;;;;;7.22;2.15;;;;;;;22.36;73.11;93156.84;5073134;28;20050;-88
2021/06/26 00:57:29;;;;;;;7.82;2.70;;;;;;;22.17;72.86;93134.09;5073291;28;20098;-88
2021/06/26 00:59:55;;;;;;;6.07;1.58;;;;;;;22.29;73.32;93149.38;5073063;28;20545;-88
2021/06/26 01:02:22;;;;;;;9.75;1.67;;;;;;;22.21;72.58;93147.41;5072892;28;20507;-88
2021/06/26 01:04:49;;;;;;;16.50;2.13;;;;;;;22.22;72.81;93159.41;5072895;28;20052;-88
2021/06/26 01:07:16;;;;;;;8.02;2.17;;;;;;;22.16;73.55;93143.78;5073091;28;20113;-88
2021/06/26 01:09:43;;;;;;;4.88;1.70;;;;;;;22.11;73.79;93143.06;5072866;28;20122;-88
2021/06/26 01:12:11;;;;;;;5.00;1.77;;;;;;;21.96;74.31;93126.56;5073242;28;20040;-88
2021/06/26 01:14:38;;;;;;;5.03;2.03;;;;;;;21.95;75.20;93142.50;5072699;28;20104;-89
2021/06/26 01:17:05;;;;;;;4.10;1.75;;;;;;;21.88;74.25;93132.41;5072992;28;20412;-89
2021/06/26 01:19:32;;;;;;;6.75;1.77;;;;;;;21.83;74.89;93135.88;5072739;28;20059;-88
2021/06/26 01:22:03;;;;;;;2.55;1.30;;;;;;;21.78;75.54;93140.38;5072618;28;20048;-87
2021/06/26 01:24:31;;;;;;;13.65;2.72;;;;;;;21.70;76.01;93133.94;5072787;28;20048;-88
2021/06/26 01:26:58;;;;;;;6.32;1.35;;;;;;;21.65;77.09;93131.38;5072571;28;20114;-88
2021/06/26 01:29:26;;;;;;;6.55;1.50;;;;;;;21.58;77.21;93139.56;5072337;28;20053;-88
2021/06/26 01:31:53;;;;;;;3.38;1.63;;;;;;;21.51;78.14;93133.91;5072686;28;20041;-88
2021/06/26 01:34:20;;;;;;;5.38;1.48;;;;;;;21.52;76.81;93123.16;5072540;28;20404;-88
2021/06/26 01:36:47;;;;;;;8.05;2.28;;;;;;;21.51;77.13;93126.81;5072397;28;20538;-89
2021/06/26 01:39:14;;;;;;;4.10;1.55;;;;;;;21.52;76.76;93117.91;5072392;28;20040;-89
2021/06/26 01:41:43;;;;;;;6.68;2.72;;;;;;;21.53;76.64;93111.66;5072233;28;20928;-88
2021/06/26 01:44:10;;;;;;;10.23;1.55;;;;;;;21.47;77.12;93115.38;5072542;28;20388;-88
2021/06/26 01:46:38;;;;;;;14.05;3.13;;;;;;;21.29;77.83;93109.84;5072284;28;20053;-89
2021/06/26 01:49:10;;;;;;;4.80;1.45;;;;;;;21.31;78.11;93120.00;5072387;28;20044;-88
2021/06/26 01:51:38;;;;;;;8.32;1.88;;;;;;;21.18;78.30;93111.78;5072305;28;20185;-88
2021/06/26 01:54:06;;;;;;;6.00;2.33;;;;;;;21.20;79.07;93124.59;5071860;28;20385;-88
2021/06/26 01:56:33;;;;;;;6.63;1.73;;;;;;;21.14;79.46;93123.84;5071217;28;20052;-88
2021/06/26 01:59:01;;;;;;;5.25;1.33;;;;;;;21.12;79.81;93125.97;5072141;28;20052;-88
2021/06/26 02:01:28;;;;;;;4.85;2.55;;;;;;;21.06;81.19;93121.84;5071957;28;20048;-88
2021/06/26 02:03:54;;;;;;;4.93;2.05;;;;;;;20.60;85.30;93131.63;5071788;28;20048;-87
2021/06/26 02:06:21;;;;;;;8.82;2.33;;;;;;;20.58;85.69;93135.56;5071793;28;20044;-87
2021/06/26 02:08:48;;;;;;;10.68;1.77;;;;;;;20.51;85.43;93136.66;5071566;28;20036;-87
2021/06/26 02:11:15;;;;;;;7.10;2.13;;;;;;;20.53;85.82;93131.16;5071641;28;20045;-87
2021/06/26 02:13:42;;;;;;;2.70;1.15;;;;;;;20.50;85.01;93132.50;5071577;28;20545;-88
2021/06/26 02:16:11;;;;;;;4.53;1.75;;;;;;;20.48;85.75;93133.81;5071818;28;20067;-88
2021/06/26 02:18:38;;;;;;;4.10;1.10;;;;;;;20.45;86.85;93150.78;5071510;28;20492;-87
2021/06/26 02:21:05;;;;;;;7.30;2.95;;;;;;;20.49;85.77;93143.19;5071569;28;20045;-88
2021/06/26 02:23:32;;;;;;;3.05;1.45;;;;;;;20.49;85.50;93151.81;5071268;28;20052;-88
2021/06/26 02:25:59;;;;;;;3.88;1.38;;;;;;;20.45;85.03;93153.41;5071666;28;20479;-88
2021/06/26 02:28:26;;;;;;;3.60;1.48;;;;;;;20.45;85.55;93155.25;5071327;28;20053;-87
2021/06/26 02:30:54;;;;;;;8.77;2.92;;;;;;;20.53;83.96;93155.44;5071254;28;20055;-88
2021/06/26 02:33:22;;;;;;;4.35;2.33;;;;;;;20.57;83.75;93166.09;5071358;28;20045;-88
2021/06/26 02:35:49;;;;;;;4.88;1.20;;;;;;;20.59;84.06;93171.06;5071622;28;20055;-88
2021/06/26 02:38:15;;;;;;;6.05;2.15;;;;;;;20.55;84.66;93168.22;5071152;28;20503;-88
2021/06/26 02:40:42;;;;;;;11.23;1.90;;;;;;;20.51;84.08;93162.75;5071355;28;20049;-88
2021/06/26 02:43:09;;;;;;;7.28;1.02;;;;;;;20.56;83.94;93160.09;5071192;28;20056;-88
2021/06/26 02:45:36;;;;;;;7.18;1.80;;;;;;;20.48;84.16;93165.13;5071082;28;20048;-88
2021/06/26 02:48:03;;;;;;;8.93;1.55;;;;;;;20.43;84.77;93166.72;5071218;28;20048;-87
2021/06/26 02:50:31;;;;;;;8.82;2.20;;;;;;;20.36;83.79;93162.88;5070921;28;20048;-88
2021/06/26 02:52:58;;;;;;;8.45;2.45;;;;;;;20.29;84.17;93166.56;5071156;28;20051;-88
2021/06/26 02:55:25;;;;;;;8.02;2.22;;;;;;;20.29;84.39;93165.78;5071069;28;20048;-88
2021/06/26 02:57:51;;;;;;;4.47;1.95;;;;;;;20.23;84.34;93162.41;5071018;28;20044;-88
2021/06/26 03:00:19;;;;;;;12.20;2.85;;;;;;;20.25;83.37;93164.75;5070881;28;20056;-88
2021/06/26 03:02:46;;;;;;;5.20;2.08;;;;;;;20.24;83.62;93156.19;5070875;28;20097;-88
2021/06/26 03:05:13;;;;;;;4.90;2.05;;;;;;;20.21;83.03;93156.72;5070736;28;20142;-88
2021/06/26 03:07:48;;;;;;;6.07;2.15;;;;;;;20.21;82.86;93161.13;5070602;28;20421;-88
2021/06/26 03:10:15;;;;;;;4.25;1.23;;;;;;;20.15;83.32;93153.34;5070931;28;20044;-88
2021/06/26 03:12:42;;;;;;;5.40;1.88;;;;;;;20.16;83.73;93157.53;5070899;28;20060;-88
2021/06/26 03:15:10;;;;;;;5.47;2.03;;;;;;;20.08;83.36;93158.09;5070766;28;20052;-88
2021/06/26 03:17:37;;;;;;;3.50;1.70;;;;;;;20.12;84.41;93153.91;5070652;28;20056;-88
2021/06/26 03:20:05;;;;;;;6.63;1.42;;;;;;;20.04;84.18;93151.84;5070956;28;20052;-88
2021/06/26 03:22:32;;;;;;;4.78;2.13;;;;;;;20.01;84.25;93152.41;5070448;28;20048;-90
2021/06/26 03:25:00;;;;;;;3.13;1.88;;;;;;;19.96;84.67;93153.22;5070313;28;20489;-88
2021/06/26 03:27:28;;;;;;;4.65;1.60;;;;;;;19.98;84.38;93155.53;5070589;28;20052;-88
2021/06/26 03:29:55;;;;;;;7.03;1.98;;;;;;;19.98;84.65;93166.75;5070426;28;20041;-88
2021/06/26 03:32:21;;;;;;;13.85;3.15;;;;;;;20.00;84.59;93169.84;5070773;28;20049;-88
2021/06/26 03:34:48;;;;;;;15.45;3.38;;;;;;;19.98;85.03;93169.34;5070770;28;20048;-89
2021/06/26 03:37:15;;;;;;;5.18;2.13;;;;;;;19.97;84.31;93162.59;5070751;28;20056;-88
2021/06/26 03:39:42;;;;;;;5.22;2.30;;;;;;;19.98;86.42;93166.75;5070611;28;20480;-88
2021/06/26 03:42:10;;;;;;;6.68;3.80;;;;;;;19.75;88.22;93166.31;5070504;28;20056;-88
2021/06/26 03:44:37;;;;;;;5.95;2.15;;;;;;;19.74;86.93;93161.38;5070426;28;20048;-88
2021/06/26 03:47:04;;;;;;;6.40;2.80;;;;;;;19.80;86.91;93165.50;5070646;28;20435;-89
2021/06/26 03:49:34;;;;;;;6.18;3.30;;;;;;;19.82;87.57;93168.63;5070354;28;20048;-88
2021/06/26 03:52:01;;;;;;;10.43;1.92;;;;;;;19.92;87.13;93172.22;5070302;28;20139;-89
2021/06/26 03:54:27;;;;;;;10.30;1.83;;;;;;;20.02;86.04;93162.56;5070486;28;20048;-89
2021/06/26 03:56:54;;;;;;;7.10;2.55;;;;;;;20.09;85.92;93167.47;5070363;28;20492;-89
2021/06/26 03:59:23;;;;;;;6.13;1.85;;;;;;;20.15;86.05;93178.66;5070220;28;20052;-89
2021/06/26 04:01:50;;;;;;;8.68;2.40;;;;;;;20.18;85.18;93172.88;5070533;28;20047;-89
2021/06/26 04:04:16;;;;;;;7.70;2.97;;;;;;;20.30;85.35;93177.78;5070492;28;20048;-89
2021/06/26 04:06:43;;;;;;;8.25;3.60;;;;;;;20.32;84.55;93172.28;5070333;28;20052;-88
2021/06/26 04:09:10;;;;;;;6.32;2.10;;;;;;;20.38;83.77;93171.19;5070160;28;20041;-89
2021/06/26 04:11:37;;;;;;;6.32;1.88;;;;;;;20.44;83.24;93177.94;5061978;28;20040;-89
2021/06/26 04:14:04;;;;;;;12.05;1.92;;;;;;;20.46;82.46;93183.66;5066441;28;20102;-89
2021/06/26 04:16:32;;;;;;;12.27;3.10;;;;;;;20.43;82.15;93179.75;5061115;28;20064;-88
2021/06/26 04:18:59;;;;;;;7.80;2.63;;;;;;;20.49;82.24;93177.13;5060544;28;20155;-90
2021/06/26 04:21:26;;;;;;;12.18;3.28;;;;;;;20.57;82.21;93184.38;5063985;28;20480;-87
2021/06/26 04:23:52;;;;;;;4.18;1.80;;;;;;;20.65;81.64;93180.41;5068380;28;20044;-88
2021/06/26 04:26:19;;;;;;;5.70;2.20;;;;;;;20.73;81.39;93184.25;5067149;28;20045;-89
2021/06/26 04:28:46;;;;;;;3.40;1.98;;;;;;;20.78;80.64;93182.38;5062354;28;20044;-88
2021/06/26 04:31:13;;;;;;;7.55;2.58;;;;;;;20.87;81.11;93184.44;5083692;28;20037;-89
2021/06/26 04:33:41;;;;;;;6.13;2.75;;;;;;;20.95;80.86;93187.22;5073456;28;20106;-89
2021/06/26 04:36:12;;;;;;;6.15;2.70;;;;;;;21.02;81.80;93188.75;5073715;28;20040;-89
2021/06/26 04:38:39;;;;;;;4.13;1.42;;;;;;;21.11;80.73;93187.09;5073463;28;20048;-89
2021/06/26 04:41:06;;;;;;;3.63;2.15;;;;;;;21.21;79.55;93175.75;5073643;28;20170;-89
2021/06/26 04:43:33;;;;;;;5.78;2.50;;;;;;;21.29;80.32;93164.69;5064375;28;20059;-89
2021/06/26 04:46:00;;;;;;;5.55;2.47;;;;;;;21.34;79.94;93171.72;5073345;28;20061;-89
2021/06/26 04:48:29;;;;;;;5.15;1.98;;;;;;;21.43;80.11;93177.88;5073384;28;20113;-88
2021/06/26 04:50:57;;;;;;;9.50;2.75;;;;;;;21.44;79.98;93174.19;5073768;28;20471;-88
2021/06/26 04:53:24;;;;;;;6.55;2.92;;;;;;;21.61;78.35;93181.59;5073096;28;20086;-89
2021/06/26 04:55:54;;;;;;;13.52;3.33;;;;;;;21.71;78.20;93183.31;5073113;28;20488;-88
2021/06/26 04:58:21;;;;;;;4.88;2.28;;;;;;;21.84;78.14;93192.31;5074121;28;20052;-88
2021/06/26 05:00:50;;;;;;;6.68;2.28;;;;;;;21.94;77.39;93186.19;5093401;28;20044;-88
2021/06/26 05:03:18;;;;;;;7.47;2.28;;;;;;;22.04;76.40;93185.28;5093173;28;20101;-88
2021/06/26 05:05:45;;;;;;;4.00;2.60;;;;;;;22.10;77.03;93189.41;5093140;28;20087;-88
2021/06/26 05:08:13;;;;;;;13.15;2.97;;;;;;;22.28;75.84;93192.28;5093197;28;21052;-88
2021/06/26 05:10:41;;;;;;;5.65;1.65;;;;;;;22.40;76.07;93190.00;5093309;28;20105;-88
2021/06/26 05:13:08;;;;;;;6.32;1.98;;;;;;;22.48;74.63;93188.59;5093273;28;20044;-88
2021/06/26 05:15:35;;;;;;;5.13;2.33;;;;;;;22.61;74.51;93181.91;5093145;28;20105;-89
2021/06/26 05:18:02;;;;;;;6.13;2.92;;;;;;;22.75;73.48;93184.56;5093028;28;20040;-89
2021/06/26 05:20:29;;;;;;;11.48;2.45;;;;;;;22.91;72.29;93179.06;5078251;28;20053;-87
2021/06/26 05:22:56;;;;;;;6.03;3.15;;;;;;;23.08;72.11;93183.75;5072953;28;20403;-89
2021/06/26 05:25:24;;;;;;;5.47;2.08;;;;;;;23.24;71.32;93181.66;5072722;28;20056;-89
2021/06/26 05:27:51;;;;;;;11.25;2.72;;;;;;;23.36;70.83;93181.19;5072653;28;20122;-89
2021/06/26 05:30:18;;;;;;;6.80;2.13;;;;;;;23.51;68.85;93184.59;5072430;28;20546;-89
2021/06/26 05:32:45;;;;;;;5.00;1.30;;;;;;;23.66;68.35;93184.31;5076036;28;20040;-89
2021/06/26 05:35:12;;;;;;;10.98;2.83;;;;;;;23.75;68.45;93181.78;5076232;28;20052;-88
2021/06/26 05:37:41;;;;;;;9.75;1.83;;;;;;;23.93;68.88;93180.09;5072282;28;20047;-89
2021/06/26 05:40:08;;;;;;;3.83;1.70;;;;;;;24.09;68.84;93174.53;5072528;28;20067;-89
2021/06/26 05:42:37;;;;;;;6.60;2.70;;;;;;;24.32;69.54;93171.94;5072420;28;20049;-87
2021/06/26 05:45:05;;;;;;;3.78;1.90;;;;;;;24.38;68.60;93168.94;5072306;28;20045;-87
2021/06/26 05:47:31;;;;;;;7.38;2.90;;;;;;;24.51;66.02;93163.91;5072055;28;20044;-88
2021/06/26 05:49:58;;;;;;;4.35;1.95;;;;;;;24.72;65.45;93174.72;5072332;28;20114;-88
2021/06/26 05:52:25;;;;;;;11.65;2.45;;;;;;;24.71;65.88;93167.91;5072078;28;20044;-87
2021/06/26 05:54:52;;;;;;;8.00;1.67;;;;;;;24.94;64.16;93173.94;5072027;28;20546;-89
2021/06/26 05:57:19;;;;;;;5.75;2.35;;;;;;;25.26;64.14;93167.91;5072473;28;20049;-88
2021/06/26 05:59:47;;;;;;;8.48;2.13;;;;;;;25.44;60.77;93174.00;5071949;28;20048;-89
2021/06/26 06:02:14;;;;;;;4.88;1.70;;;;;;;25.72;62.56;93165.91;5071745;28;20098;-88
2021/06/26 06:04:41;;;;;;;4.75;2.40;;;;;;;25.96;59.44;93165.50;5071824;28;20056;-87
2021/06/26 06:07:09;;;;;;;5.38;2.05;;;;;;;26.18;59.78;93161.19;5071909;28;20051;-88
2021/06/26 06:09:35;;;;;;;5.78;1.58;;;;;;;26.48;59.73;93157.97;5071748;28;20485;-89
2021/06/26 06:12:03;;;;;;;9.20;1.70;;;;;;;26.83;58.90;93160.53;5071693;28;20049;-89
2021/06/26 06:14:30;;;;;;;6.05;2.17;;;;;;;27.18;57.63;93149.16;5071582;28;20480;-89
2021/06/26 06:16:58;;;;;;;8.07;1.75;;;;;;;27.44;52.54;93162.22;5072110;28;20052;-88
2021/06/26 06:19:25;;;;;;;8.35;2.28;;;;;;;27.77;51.85;93157.44;5071433;28;20052;-88
2021/06/26 06:21:52;;;;;;;9.75;3.10;;;;;;;27.95;51.84;93150.19;5071640;28;20060;-89
2021/06/26 06:24:19;;;;;;;8.85;2.40;;;;;;;28.37;51.27;93155.50;5071229;28;20492;-89
2021/06/26 06:26:46;;;;;;;8.38;2.70;;;;;;;28.75;49.76;93158.28;5071192;28;20064;-89
2021/06/26 06:29:12;;;;;;;9.93;2.40;;;;;;;29.04;48.82;93162.69;5071223;28;20404;-87
2021/06/26 06:31:40;;;;;;;12.77;4.32;;;;;;;29.40;47.11;93154.31;5071350;28;20048;-89
2021/06/26 06:34:08;;;;;;;13.23;4.40;;;;;;;29.40;47.11;93154.31;5043292;28;20075;-88
2021/06/26 06:36:36;;;;;;;10.05;4.35;;;;;;;30.15;45.51;93147.13;5051373;28;20055;-88
2021/06/26 06:39:03;;;;;;;6.03;3.17;;;;;;;-147.90;100.00;59510.75;5051581;28;20061;-86
2021/06/26 06:41:30;;;;;;;9.35;3.85;;;;;;;-147.90;100.00;59510.75;5050687;28;20052;-89
2021/06/26 06:43:57;;;;;;;6.15;2.78;;;;;;;-147.90;100.00;59510.75;5050995;28;20055;-86
2021/06/26 06:46:24;;;;;;;4.85;2.50;;;;;;;-147.90;100.00;59510.75;5051355;28;20044;-87
2021/06/26 06:48:51;;;;;;;6.05;2.38;;;;;;;-147.90;100.00;59510.75;5051044;28;20052;-85
2021/06/26 06:51:19;;;;;;;8.68;2.60;;;;;;;-147.90;100.00;59510.75;5051022;28;20485;-87
2021/06/26 06:53:46;;;;;;;9.63;1.77;;;;;;;-147.90;100.00;59510.75;5051128;28;20045;-85
2021/06/26 06:56:13;;;;;;;8.02;2.28;;;;;;;-147.90;100.00;59510.75;5050853;28;20049;-85
2021/06/26 06:58:39;;;;;;;5.70;1.95;;;;;;;-147.90;100.00;59510.75;5051042;28;20049;-87
2021/06/26 07:01:06;;;;;;;11.52;2.78;;;;;;;-147.90;100.00;59510.75;5051135;28;20044;-85
2021/06/26 07:03:33;;;;;;;11.70;2.65;;;;;;;-147.90;100.00;59510.75;5050912;28;20075;-87
2021/06/26 07:06:00;;;;;;;7.25;2.72;;;;;;;-147.90;100.00;59510.75;5050921;28;20175;-86
2021/06/26 07:08:29;;;;;;;5.47;1.42;;;;;;;-147.90;100.00;59510.75;5050798;28;20045;-89
2021/06/26 07:10:56;;;;;;;7.10;2.40;;;;;;;-147.90;100.00;59510.75;5046436;28;20143;-87
2021/06/26 07:13:23;;;;;;;6.80;1.75;;;;;;;-147.90;100.00;59510.75;5050894;28;20061;-89
2021/06/26 07:15:50;;;;;;;6.15;2.40;;;;;;;-147.90;100.00;59510.75;5050970;28;20045;-87
2021/06/26 07:18:16;;;;;;;7.03;1.42;;;;;;;-147.90;100.00;59510.75;5050835;28;20052;-89
2021/06/26 07:20:43;;;;;;;4.40;1.25;;;;;;;-147.90;100.00;59510.75;5034321;28;20096;-87
2021/06/26 07:23:10;;;;;;;6.07;1.40;;;;;;;-147.90;100.00;59510.75;5030675;28;20045;-85
2021/06/26 07:25:38;;;;;;;8.43;1.50;;;;;;;-147.90;100.00;59510.75;5030477;28;20065;-86
2021/06/26 07:28:05;;;;;;;4.20;1.13;;;;;;;-147.90;100.00;59510.75;5030527;28;20052;-83
2021/06/26 07:30:32;;;;;;;6.68;2.55;;;;;;;-147.90;100.00;59510.75;5030520;28;20057;-83
2021/06/26 07:32:59;;;;;;;7.05;1.83;;;;;;;-147.90;100.00;59510.75;5030594;28;20053;-84
2021/06/26 07:35:26;;;;;;;4.15;1.80;;;;;;;-147.90;100.00;59510.75;5030692;28;20049;-84
2021/06/26 07:37:53;;;;;;;6.22;1.00;;;;;;;-147.90;100.00;59510.75;5030438;28;20507;-88
2021/06/26 07:40:19;;;;;;;4.35;0.80;;;;;;;-147.90;100.00;59510.75;5030490;28;20046;-89
2021/06/26 07:42:48;;;;;;;4.95;1.92;;;;;;;-147.90;100.00;59510.75;5030508;28;20053;-86
2021/06/26 07:45:15;;;;;;;7.30;2.15;;;;;;;-147.90;100.00;59510.75;5030519;28;20064;-86
2021/06/26 07:47:41;;;;;;;3.83;1.60;;;;;;;-147.90;100.00;59510.75;5030759;28;20080;-85
2021/06/26 07:50:09;;;;;;;13.90;1.77;;;;;;;-147.90;100.00;59510.75;5030564;28;20410;-86
2021/06/26 07:52:36;;;;;;;3.65;1.23;;;;;;;-147.90;100.00;59510.75;5031292;28;20502;-86
2021/06/26 07:55:05;;;;;;;5.00;1.95;;;;;;;-147.90;100.00;59510.75;5034599;28;20057;-86
2021/06/26 07:57:32;;;;;;;7.15;1.70;;;;;;;-147.90;100.00;59510.75;5034205;28;20068;-88
2021/06/26 08:00:00;;;;;;;6.55;1.85;;;;;;;30.15;45.51;93147.13;5034314;28;20410;-84
2021/06/26 08:02:27;;;;;;;5.78;1.30;;;;;;;33.32;29.77;93118.41;5034376;28;20041;-83
2021/06/26 08:04:54;;;;;;;4.10;0.88;;;;;;;33.09;29.75;93121.06;5034602;28;20064;-87
2021/06/26 08:07:20;;;;;;;5.40;1.02;;;;;;;32.83;30.41;93127.06;5034079;28;20492;-82
2021/06/26 08:09:47;;;;;;;1.67;0.80;;;;;;;32.24;32.38;93117.25;5034044;28;20053;-86
2021/06/26 08:12:17;;;;;;;6.35;0.90;;;;;;;32.06;32.76;93125.63;5034366;28;20056;-83
2021/06/26 08:14:44;;;;;;;5.50;1.40;;;;;;;32.22;31.46;93116.81;5034047;28;20052;-84
2021/06/26 08:17:13;;;;;;;4.72;1.73;;;;;;;32.20;30.07;93119.06;5034477;28;20049;-86
2021/06/26 08:19:41;;;;;;;5.63;1.55;;;;;;;32.40;30.16;93117.94;5041321;28;20052;-82
2021/06/26 08:22:08;;;;;;;3.28;0.93;;;;;;;32.73;31.69;93117.78;5053950;28;20067;-88
2021/06/26 08:24:36;;;;;;;4.25;1.00;;;;;;;33.17;31.37;93103.31;5053592;28;20060;-89
2021/06/26 08:27:03;;;;;;;5.20;0.85;;;;;;;33.66;29.35;93112.47;5053534;28;20511;-89
2021/06/26 08:29:30;;;;;;;4.68;1.85;;;;;;;-147.90;100.00;59510.75;5053972;28;20432;-85
2021/06/26 08:31:57;;;;;;;4.50;1.70;;;;;;;33.66;29.35;93112.47;5053691;28;20057;-84
2021/06/26 08:34:26;;;;;;;8.82;2.38;;;;;;;33.45;31.18;93112.88;5053420;28;20049;-83
2021/06/26 08:36:53;;;;;;;4.70;1.20;;;;;;;33.87;29.61;93111.19;5053997;28;20139;-86
2021/06/26 08:39:20;;;;;;;4.30;1.23;;;;;;;33.95;29.90;93112.06;5053547;28;20045;-90
2021/06/26 08:41:49;;;;;;;4.68;2.72;;;;;;;34.17;28.58;93115.03;5053628;28;20402;-84
2021/06/26 08:44:18;;;;;;;5.15;1.08;;;;;;;34.16;29.96;93114.25;5053264;28;20064;-88
2021/06/26 08:46:49;;;;;;;4.88;0.85;;;;;;;-147.90;100.00;59510.75;5053351;28;20040;-82
2021/06/26 08:49:16;;;;;;;6.53;1.20;;;;;;;-147.90;100.00;59510.75;5053259;28;20044;-86
2021/06/26 08:51:44;;;;;;;10.50;2.65;;;;;;;-147.90;100.00;59510.75;5053145;28;20052;-86
2021/06/26 08:54:13;;;;;;;6.13;1.30;;;;;;;-147.90;100.00;59510.75;5053168;28;20056;-84
2021/06/26 08:56:42;;;;;;;2.35;1.20;;;;;;;-147.90;100.00;59510.75;5053221;28;20052;-84
2021/06/26 08:59:09;;;;;;;5.97;1.15;;;;;;;-147.90;100.00;59510.75;5053072;28;20048;-86
2021/06/26 09:01:36;;;;;;;6.35;0.77;;;;;;;34.16;29.96;93114.25;5053342;28;20060;-87
2021/06/26 09:04:05;;;;;;;8.38;1.45;;;;;;;34.16;29.96;93114.25;5052436;28;20057;-87
2021/06/26 09:06:33;;;;;;;5.45;1.95;;;;;;;35.44;27.69;93101.00;5053043;28;20411;-86
2021/06/26 09:09:02;;;;;;;5.07;0.80;;;;;;;35.49;28.02;93097.22;5052968;28;20049;-86
2021/06/26 09:11:29;;;;;;;7.00;1.00;;;;;;;35.58;28.80;93091.53;5053025;28;20049;-87
2021/06/26 09:13:56;;;;;;;7.93;1.55;;;;;;;36.02;28.51;93089.91;5052786;28;20488;-84
2021/06/26 09:16:23;;;;;;;11.10;1.45;;;;;;;36.36;28.04;93092.34;5053050;28;20053;-87
2021/06/26 09:18:51;;;;;;;6.85;1.40;;;;;;;36.50;27.28;93074.78;5052711;28;20056;-82
2021/06/26 09:21:29;;;;;;;6.07;1.52;;;;;;;36.54;27.83;93072.88;5052904;28;20391;-85
2021/06/26 09:24:04;;;;;;;7.05;1.58;;;;;;;36.63;26.34;93075.22;5052757;28;20052;-83
2021/06/26 09:26:31;;;;;;;7.22;1.85;;;;;;;36.02;26.60;93073.84;5052898;28;20096;-86
2021/06/26 09:29:09;;;;;;;4.85;1.35;;;;;;;35.98;27.43;93073.84;5052789;28;20053;-84
2021/06/26 09:31:36;;;;;;;9.00;1.30;;;;;;;35.98;26.93;93073.84;5049658;28;20049;-85
2021/06/26 09:34:04;;;;;;;5.07;1.85;;;;;;;36.22;27.10;93070.88;5038182;28;20456;-85
2021/06/26 09:36:32;;;;;;;3.80;1.40;;;;;;;36.69;27.13;93070.28;5032612;28;20132;-87
2021/06/26 09:39:01;;;;;;;5.57;1.00;;;;;;;37.01;26.05;93066.81;5050521;28;20052;-86
2021/06/26 09:41:30;;;;;;;9.25;1.35;;;;;;;36.90;26.56;93066.84;5052646;28;20076;-86
2021/06/26 09:44:08;;;;;;;8.77;1.42;;;;;;;37.15;27.00;93076.78;5052376;28;20060;-85
2021/06/26 09:46:45;;;;;;;7.43;1.48;;;;;;;37.30;26.64;93070.28;5051204;28;20045;-87
2021/06/26 09:49:13;;;;;;;5.22;1.00;;;;;;;37.53;26.09;93071.78;5052020;28;20492;-85
2021/06/26 09:51:40;;;;;;;5.82;1.60;;;;;;;36.67;25.92;93067.97;5052448;28;20041;-85
2021/06/26 09:54:09;;;;;;;8.63;1.00;;;;;;;36.21;27.41;93067.47;5052105;28;20544;-86
2021/06/26 09:56:42;;;;;;;4.00;1.55;;;;;;;36.39;28.25;93064.06;5052247;28;20060;-87
2021/06/26 09:59:10;;;;;;;3.63;1.55;;;;;;;36.45;27.12;93067.13;5052211;28;20055;-82
2021/06/26 10:01:40;;;;;;;4.63;1.20;;;;;;;36.27;27.50;93056.41;5051899;28;20041;-87
2021/06/26 10:04:07;;;;;;;4.85;1.58;;;;;;;36.60;27.32;93043.84;5051841;28;20060;-84
2021/06/26 10:06:35;;;;;;;6.65;1.50;;;;;;;36.74;27.72;93054.59;5052067;28;20049;-87
2021/06/26 10:09:03;;;;;;;6.75;2.03;;;;;;;37.02;26.30;93042.34;5051833;28;20406;-87
2021/06/26 10:11:31;;;;;;;3.58;1.20;;;;;;;36.60;27.15;93049.97;5051904;28;20048;-86
2021/06/26 10:14:02;;;;;;;6.95;2.63;;;;;;;36.62;27.53;93038.91;5051792;28;20045;-92
2021/06/26 10:16:30;;;;;;;6.05;2.17;;;;;;;37.11;26.86;93043.91;5050997;28;20049;-88
2021/06/26 10:19:00;;;;;;;5.80;1.92;;;;;;;37.67;26.50;93044.22;5051730;28;20067;-91
2021/06/26 10:21:27;;;;;;;20.67;3.70;;;;;;;37.97;26.09;93045.66;5051553;28;20497;-87
2021/06/26 10:23:55;;;;;;;9.02;2.35;;;;;;;38.13;23.58;93047.13;5051508;28;20107;-86
2021/06/26 10:26:22;;;;;;;5.07;0.90;;;;;;;37.75;24.49;93034.22;5051654;28;20199;-90
2021/06/26 10:28:50;;;;;;;3.13;1.80;;;;;;;37.77;25.42;93048.03;5051353;28;20048;-85
2021/06/26 10:31:29;;;;;;;3.78;1.27;;;;;;;37.35;24.93;93047.72;5051369;28;20045;-86
2021/06/26 10:34:08;;;;;;;6.43;0.95;;;;;;;36.66;26.42;93036.22;5051304;28;20052;-88
2021/06/26 10:36:36;;;;;;;3.17;1.45;;;;;;;36.53;27.17;93036.59;5051405;28;20045;-86
2021/06/26 10:39:04;;;;;;;1.70;0.80;;;;;;;36.58;27.86;93041.56;5049980;28;20052;-87
2021/06/26 10:41:30;;;;;;;3.35;0.80;;;;;;;36.57;27.25;93034.69;5051169;28;20499;-89
2021/06/26 10:43:59;;;;;;;3.53;1.85;;;;;;;36.58;27.76;93033.53;5051186;28;20041;-89
2021/06/26 10:46:27;;;;;;;7.38;1.05;;;;;;;36.26;27.09;93036.13;5051118;28;20041;-86
2021/06/26 10:49:03;;;;;;;3.72;1.30;;;;;;;35.72;26.13;93032.09;5051125;28;20053;-82
2021/06/26 10:51:34;;;;;;;8.98;2.58;;;;;;;35.69;27.81;93030.94;5051159;28;20045;-89
2021/06/26 10:54:12;;;;;;;4.97;1.15;;;;;;;35.97;28.56;93026.09;5051094;28;20045;-87
2021/06/26 10:56:40;;;;;;;5.70;1.73;;;;;;;35.83;28.20;93024.16;5051294;28;20040;-84
2021/06/26 10:59:11;;;;;;;15.52;5.35;;;;;;;35.98;28.16;93023.06;5050963;28;20045;-82
2021/06/26 11:01:40;;;;;;;4.32;1.10;;;;;;;35.94;27.42;93013.47;5051014;28;20054;-83
2021/06/26 11:04:10;;;;;;;6.72;1.20;;;;;;;36.46;27.87;93015.94;5039751;28;20049;-86
2021/06/26 11:06:39;;;;;;;7.43;1.85;;;;;;;36.92;27.59;93013.69;5030955;28;20045;-85
2021/06/26 11:09:07;;;;;;;3.67;1.20;;;;;;;36.60;28.03;93011.75;5031114;28;20409;-83
2021/06/26 11:11:36;;;;;;;4.63;1.42;;;;;;;35.71;27.49;93009.97;5030856;28;20046;-83
2021/06/26 11:14:08;;;;;;;3.13;1.10;;;;;;;35.56;27.63;93008.34;5030836;28;20051;-82
2021/06/26 11:16:35;;;;;;;7.00;1.40;;;;;;;35.91;27.33;93006.25;5030810;28;20045;-86
2021/06/26 11:19:04;;;;;;;3.97;1.08;;;;;;;35.68;26.82;93000.03;5033000;28;20064;-86
2021/06/26 11:21:38;;;;;;;3.78;1.05;;;;;;;34.99;28.38;93007.59;5050713;28;20055;-82
2021/06/26 11:24:07;;;;;;;5.93;1.90;;;;;;;34.28;28.94;92990.63;5050801;28;20052;-83
2021/06/26 11:26:44;;;;;;;5.07;1.83;;;;;;;34.45;30.95;92999.16;5050426;28;20079;-86
2021/06/26 11:29:11;;;;;;;5.30;2.05;;;;;;;34.59;30.44;92995.88;5050219;28;20053;-87
2021/06/26 11:31:37;;;;;;;4.40;1.88;;;;;;;34.55;29.80;92997.69;5050880;28;20045;-84